sensor_id;sensor_type;location;lat;lon;timestamp;P1;durP1;ratioP1;P2;durP2;ratioP2
54171;SDS011;40076;52.354;4.970;2023-03-11T00:01:00;7.25;;;0.80;;
54171;SDS011;40076;52.354;4.970;2023-03-11T00:03:25;6.63;;;0.85;;
54171;SDS011;40076;52.354;4.970;2023-03-11T00:05:53;4.32;;;0.75;;
54171;SDS011;40076;52.354;4.970;2023-03-11T00:08:20;19.67;;;2.97;;
54171;SDS011;40076;52.354;4.970;2023-03-11T00:10:50;8.35;;;1.02;;
54171;SDS011;40076;52.354;4.970;2023-03-11T00:13:17;9.40;;;1.00;;
54171;SDS011;40076;52.354;4.970;2023-03-11T00:15:44;6.55;;;0.70;;
54171;SDS011;40076;52.354;4.970;2023-03-11T00:18:11;4.80;;;0.80;;
54171;SDS011;40076;52.354;4.970;2023-03-11T00:20:37;3.53;;;0.85;;
54171;SDS011;40076;52.354;4.970;2023-03-11T00:23:14;3.95;;;0.70;;
54171;SDS011;40076;52.354;4.970;2023-03-11T00:25:41;5.75;;;0.75;;
54171;SDS011;40076;52.354;4.970;2023-03-11T00:28:08;6.75;;;0.90;;
54171;SDS011;40076;52.354;4.970;2023-03-11T00:30:37;5.40;;;1.00;;
54171;SDS011;40076;52.354;4.970;2023-03-11T00:33:04;3.28;;;0.63;;
54171;SDS011;40076;52.354;4.970;2023-03-11T00:35:30;4.22;;;1.00;;
54171;SDS011;40076;52.354;4.970;2023-03-11T00:37:58;4.10;;;0.90;;
54171;SDS011;40076;52.354;4.970;2023-03-11T00:40:27;15.18;;;1.30;;
54171;SDS011;40076;52.354;4.970;2023-03-11T00:42:54;5.72;;;1.10;;
54171;SDS011;40076;52.354;4.970;2023-03-11T00:45:19;6.95;;;0.95;;
54171;SDS011;40076;52.354;4.970;2023-03-11T00:47:45;7.15;;;1.40;;
54171;SDS011;40076;52.354;4.970;2023-03-11T00:50:15;4.47;;;0.95;;
54171;SDS011;40076;52.354;4.970;2023-03-11T00:52:43;7.35;;;1.10;;
54171;SDS011;40076;52.354;4.970;2023-03-11T00:55:09;15.73;;;1.75;;
54171;SDS011;40076;52.354;4.970;2023-03-11T00:57:37;4.25;;;1.17;;
54171;SDS011;40076;52.354;4.970;2023-03-11T01:00:04;5.88;;;1.17;;
54171;SDS011;40076;52.354;4.970;2023-03-11T01:02:31;5.22;;;1.20;;
54171;SDS011;40076;52.354;4.970;2023-03-11T01:04:56;5.13;;;0.88;;
54171;SDS011;40076;52.354;4.970;2023-03-11T01:07:21;12.82;;;1.40;;
54171;SDS011;40076;52.354;4.970;2023-03-11T01:09:47;5.35;;;0.77;;
54171;SDS011;40076;52.354;4.970;2023-03-11T01:12:12;4.80;;;0.70;;
54171;SDS011;40076;52.354;4.970;2023-03-11T01:14:37;8.40;;;0.88;;
54171;SDS011;40076;52.354;4.970;2023-03-11T01:17:03;3.95;;;0.70;;
54171;SDS011;40076;52.354;4.970;2023-03-11T01:19:28;5.70;;;0.50;;
54171;SDS011;40076;52.354;4.970;2023-03-11T01:21:53;7.40;;;1.55;;
54171;SDS011;40076;52.354;4.970;2023-03-11T01:24:19;5.20;;;0.80;;
54171;SDS011;40076;52.354;4.970;2023-03-11T01:26:44;5.05;;;0.80;;
54171;SDS011;40076;52.354;4.970;2023-03-11T01:29:09;9.32;;;2.15;;
54171;SDS011;40076;52.354;4.970;2023-03-11T01:31:35;5.63;;;0.70;;
54171;SDS011;40076;52.354;4.970;2023-03-11T01:34:00;3.65;;;0.60;;
54171;SDS011;40076;52.354;4.970;2023-03-11T01:36:25;3.47;;;0.60;;
54171;SDS011;40076;52.354;4.970;2023-03-11T01:38:51;4.32;;;0.68;;
54171;SDS011;40076;52.354;4.970;2023-03-11T01:41:16;4.45;;;0.70;;
54171;SDS011;40076;52.354;4.970;2023-03-11T01:51:44;7.50;;;0.88;;
54171;SDS011;40076;52.354;4.970;2023-03-11T01:54:32;6.55;;;0.82;;
54171;SDS011;40076;52.354;4.970;2023-03-11T01:57:03;5.05;;;1.17;;
54171;SDS011;40076;52.354;4.970;2023-03-11T01:59:32;6.65;;;1.45;;
54171;SDS011;40076;52.354;4.970;2023-03-11T02:04:29;8.48;;;1.58;;
54171;SDS011;40076;52.354;4.970;2023-03-11T02:06:58;6.43;;;1.83;;
54171;SDS011;40076;52.354;4.970;2023-03-11T02:09:24;3.65;;;1.10;;
54171;SDS011;40076;52.354;4.970;2023-03-11T02:11:50;4.60;;;0.93;;
54171;SDS011;40076;52.354;4.970;2023-03-11T02:14:16;6.95;;;1.20;;
54171;SDS011;40076;52.354;4.970;2023-03-11T02:16:41;7.15;;;1.10;;
54171;SDS011;40076;52.354;4.970;2023-03-11T02:19:12;6.03;;;1.05;;
54171;SDS011;40076;52.354;4.970;2023-03-11T02:21:48;5.88;;;1.23;;
54171;SDS011;40076;52.354;4.970;2023-03-11T02:26:55;5.07;;;1.30;;
54171;SDS011;40076;52.354;4.970;2023-03-11T02:29:23;5.13;;;1.70;;
54171;SDS011;40076;52.354;4.970;2023-03-11T02:31:50;6.45;;;1.48;;
54171;SDS011;40076;52.354;4.970;2023-03-11T02:34:27;11.60;;;2.22;;
54171;SDS011;40076;52.354;4.970;2023-03-11T02:36:54;8.30;;;1.95;;
54171;SDS011;40076;52.354;4.970;2023-03-11T02:39:29;5.53;;;1.33;;
54171;SDS011;40076;52.354;4.970;2023-03-11T02:42:01;8.98;;;1.65;;
54171;SDS011;40076;52.354;4.970;2023-03-11T02:44:29;8.70;;;1.50;;
54171;SDS011;40076;52.354;4.970;2023-03-11T02:46:55;9.07;;;1.50;;
54171;SDS011;40076;52.354;4.970;2023-03-11T02:49:21;8.20;;;1.42;;
54171;SDS011;40076;52.354;4.970;2023-03-11T02:51:47;8.23;;;1.63;;
54171;SDS011;40076;52.354;4.970;2023-03-11T02:54:12;11.35;;;1.40;;
54171;SDS011;40076;52.354;4.970;2023-03-11T02:56:38;5.93;;;1.17;;
54171;SDS011;40076;52.354;4.970;2023-03-11T02:59:03;5.28;;;1.00;;
54171;SDS011;40076;52.354;4.970;2023-03-11T03:01:28;7.10;;;2.13;;
54171;SDS011;40076;52.354;4.970;2023-03-11T03:03:53;7.18;;;1.30;;
54171;SDS011;40076;52.354;4.970;2023-03-11T03:06:19;6.03;;;0.90;;
54171;SDS011;40076;52.354;4.970;2023-03-11T03:08:44;8.48;;;1.45;;
54171;SDS011;40076;52.354;4.970;2023-03-11T03:11:09;7.55;;;0.85;;
54171;SDS011;40076;52.354;4.970;2023-03-11T03:13:35;11.95;;;1.20;;
54171;SDS011;40076;52.354;4.970;2023-03-11T03:16:00;4.88;;;0.50;;
54171;SDS011;40076;52.354;4.970;2023-03-11T03:18:26;4.43;;;0.63;;
54171;SDS011;40076;52.354;4.970;2023-03-11T03:20:52;7.38;;;1.08;;
54171;SDS011;40076;52.354;4.970;2023-03-11T03:23:17;4.72;;;0.63;;
54171;SDS011;40076;52.354;4.970;2023-03-11T03:25:43;5.53;;;0.90;;
54171;SDS011;40076;52.354;4.970;2023-03-11T03:28:10;3.40;;;0.70;;
54171;SDS011;40076;52.354;4.970;2023-03-11T03:30:36;4.72;;;0.88;;
54171;SDS011;40076;52.354;4.970;2023-03-11T03:33:02;9.05;;;1.00;;
54171;SDS011;40076;52.354;4.970;2023-03-11T03:35:27;4.63;;;0.88;;
54171;SDS011;40076;52.354;4.970;2023-03-11T03:37:52;7.00;;;0.80;;
54171;SDS011;40076;52.354;4.970;2023-03-11T03:40:19;4.85;;;0.80;;
54171;SDS011;40076;52.354;4.970;2023-03-11T03:42:44;4.88;;;1.00;;
54171;SDS011;40076;52.354;4.970;2023-03-11T03:45:09;7.18;;;1.00;;
54171;SDS011;40076;52.354;4.970;2023-03-11T03:47:35;6.70;;;1.40;;
54171;SDS011;40076;52.354;4.970;2023-03-11T03:50:02;7.38;;;1.05;;
54171;SDS011;40076;52.354;4.970;2023-03-11T03:52:28;4.57;;;1.02;;
54171;SDS011;40076;52.354;4.970;2023-03-11T03:54:53;7.50;;;1.08;;
54171;SDS011;40076;52.354;4.970;2023-03-11T03:57:19;5.22;;;1.30;;
54171;SDS011;40076;52.354;4.970;2023-03-11T03:59:44;4.00;;;0.82;;
54171;SDS011;40076;52.354;4.970;2023-03-11T04:02:09;7.80;;;1.65;;
54171;SDS011;40076;52.354;4.970;2023-03-11T04:04:35;4.68;;;1.08;;
54171;SDS011;40076;52.354;4.970;2023-03-11T04:07:02;7.28;;;0.90;;
54171;SDS011;40076;52.354;4.970;2023-03-11T04:09:28;4.75;;;0.90;;
54171;SDS011;40076;52.354;4.970;2023-03-11T04:11:53;4.72;;;1.10;;
54171;SDS011;40076;52.354;4.970;2023-03-11T04:14:19;4.05;;;0.50;;
54171;SDS011;40076;52.354;4.970;2023-03-11T04:16:44;3.63;;;0.60;;
54171;SDS011;40076;52.354;4.970;2023-03-11T04:19:09;2.40;;;0.57;;
54171;SDS011;40076;52.354;4.970;2023-03-11T04:21:37;4.25;;;0.70;;
54171;SDS011;40076;52.354;4.970;2023-03-11T04:24:02;6.18;;;0.80;;
54171;SDS011;40076;52.354;4.970;2023-03-11T04:26:28;5.60;;;0.73;;
54171;SDS011;40076;52.354;4.970;2023-03-11T04:28:53;6.03;;;0.85;;
54171;SDS011;40076;52.354;4.970;2023-03-11T04:31:19;4.80;;;0.88;;
54171;SDS011;40076;52.354;4.970;2023-03-11T04:33:44;5.22;;;0.60;;
54171;SDS011;40076;52.354;4.970;2023-03-11T04:36:10;4.22;;;0.85;;
54171;SDS011;40076;52.354;4.970;2023-03-11T04:38:36;6.75;;;1.00;;
54171;SDS011;40076;52.354;4.970;2023-03-11T04:41:04;7.22;;;1.60;;
54171;SDS011;40076;52.354;4.970;2023-03-11T04:43:31;7.47;;;1.00;;
54171;SDS011;40076;52.354;4.970;2023-03-11T04:45:57;3.83;;;0.95;;
54171;SDS011;40076;52.354;4.970;2023-03-11T04:48:23;8.93;;;1.10;;
54171;SDS011;40076;52.354;4.970;2023-03-11T04:50:49;3.33;;;1.00;;
54171;SDS011;40076;52.354;4.970;2023-03-11T04:53:14;5.57;;;0.90;;
54171;SDS011;40076;52.354;4.970;2023-03-11T04:55:40;5.68;;;1.30;;
54171;SDS011;40076;52.354;4.970;2023-03-11T04:58:05;7.15;;;1.00;;
54171;SDS011;40076;52.354;4.970;2023-03-11T05:00:31;4.13;;;0.73;;
54171;SDS011;40076;52.354;4.970;2023-03-11T05:02:56;4.70;;;0.93;;
54171;SDS011;40076;52.354;4.970;2023-03-11T05:05:21;6.10;;;1.00;;
54171;SDS011;40076;52.354;4.970;2023-03-11T05:07:47;5.10;;;1.00;;
54171;SDS011;40076;52.354;4.970;2023-03-11T05:10:13;4.80;;;1.77;;
54171;SDS011;40076;52.354;4.970;2023-03-11T05:12:38;3.65;;;0.90;;
54171;SDS011;40076;52.354;4.970;2023-03-11T05:15:04;5.00;;;0.90;;
54171;SDS011;40076;52.354;4.970;2023-03-11T05:17:29;3.05;;;0.93;;
54171;SDS011;40076;52.354;4.970;2023-03-11T05:19:55;4.88;;;1.15;;
54171;SDS011;40076;52.354;4.970;2023-03-11T05:22:21;9.18;;;1.10;;
54171;SDS011;40076;52.354;4.970;2023-03-11T05:24:46;3.80;;;1.08;;
54171;SDS011;40076;52.354;4.970;2023-03-11T05:27:12;4.50;;;1.10;;
54171;SDS011;40076;52.354;4.970;2023-03-11T05:29:37;6.53;;;0.95;;
54171;SDS011;40076;52.354;4.970;2023-03-11T05:32:03;6.70;;;1.02;;
54171;SDS011;40076;52.354;4.970;2023-03-11T05:34:29;7.35;;;1.30;;
54171;SDS011;40076;52.354;4.970;2023-03-11T05:36:54;5.25;;;0.85;;
54171;SDS011;40076;52.354;4.970;2023-03-11T05:39:20;6.65;;;1.00;;
54171;SDS011;40076;52.354;4.970;2023-03-11T05:41:45;5.20;;;0.80;;
54171;SDS011;40076;52.354;4.970;2023-03-11T05:44:10;3.80;;;1.00;;
54171;SDS011;40076;52.354;4.970;2023-03-11T05:46:36;9.00;;;0.90;;
54171;SDS011;40076;52.354;4.970;2023-03-11T05:49:01;8.95;;;1.20;;
54171;SDS011;40076;52.354;4.970;2023-03-11T05:51:26;4.78;;;1.15;;
54171;SDS011;40076;52.354;4.970;2023-03-11T05:53:52;6.07;;;1.05;;
54171;SDS011;40076;52.354;4.970;2023-03-11T05:56:18;5.30;;;1.10;;
54171;SDS011;40076;52.354;4.970;2023-03-11T05:58:45;4.45;;;0.93;;
54171;SDS011;40076;52.354;4.970;2023-03-11T06:01:11;5.75;;;0.90;;
54171;SDS011;40076;52.354;4.970;2023-03-11T06:03:42;5.05;;;1.13;;
54171;SDS011;40076;52.354;4.970;2023-03-11T06:06:08;11.05;;;1.17;;
54171;SDS011;40076;52.354;4.970;2023-03-11T06:08:35;10.05;;;1.40;;
54171;SDS011;40076;52.354;4.970;2023-03-11T06:11:02;6.47;;;1.40;;
54171;SDS011;40076;52.354;4.970;2023-03-11T06:13:27;5.28;;;1.00;;
54171;SDS011;40076;52.354;4.970;2023-03-11T06:15:52;8.05;;;1.45;;
54171;SDS011;40076;52.354;4.970;2023-03-11T06:18:18;2.45;;;1.02;;
54171;SDS011;40076;52.354;4.970;2023-03-11T06:20:43;4.25;;;1.10;;
54171;SDS011;40076;52.354;4.970;2023-03-11T06:23:08;5.85;;;1.70;;
54171;SDS011;40076;52.354;4.970;2023-03-11T06:25:33;4.85;;;1.02;;
54171;SDS011;40076;52.354;4.970;2023-03-11T06:27:59;5.15;;;1.70;;
54171;SDS011;40076;52.354;4.970;2023-03-11T06:30:24;9.05;;;1.52;;
54171;SDS011;40076;52.354;4.970;2023-03-11T06:32:49;4.88;;;1.58;;
54171;SDS011;40076;52.354;4.970;2023-03-11T06:35:15;5.75;;;1.20;;
54171;SDS011;40076;52.354;4.970;2023-03-11T06:37:40;6.53;;;1.70;;
54171;SDS011;40076;52.354;4.970;2023-03-11T06:40:06;5.35;;;1.40;;
54171;SDS011;40076;52.354;4.970;2023-03-11T06:42:34;7.65;;;1.63;;
54171;SDS011;40076;52.354;4.970;2023-03-11T06:44:59;5.57;;;1.80;;
54171;SDS011;40076;52.354;4.970;2023-03-11T06:47:25;7.70;;;1.30;;
54171;SDS011;40076;52.354;4.970;2023-03-11T06:49:51;6.60;;;1.95;;
54171;SDS011;40076;52.354;4.970;2023-03-11T06:52:16;6.00;;;1.75;;
54171;SDS011;40076;52.354;4.970;2023-03-11T06:54:41;4.60;;;1.38;;
54171;SDS011;40076;52.354;4.970;2023-03-11T06:57:07;8.73;;;2.28;;
54171;SDS011;40076;52.354;4.970;2023-03-11T06:59:33;3.70;;;1.30;;
54171;SDS011;40076;52.354;4.970;2023-03-11T07:01:59;5.82;;;1.65;;
54171;SDS011;40076;52.354;4.970;2023-03-11T07:04:24;10.88;;;1.90;;
54171;SDS011;40076;52.354;4.970;2023-03-11T07:06:50;8.25;;;1.60;;
54171;SDS011;40076;52.354;4.970;2023-03-11T07:09:15;8.50;;;1.98;;
54171;SDS011;40076;52.354;4.970;2023-03-11T07:11:41;5.22;;;1.70;;
54171;SDS011;40076;52.354;4.970;2023-03-11T07:14:06;6.28;;;2.28;;
54171;SDS011;40076;52.354;4.970;2023-03-11T07:16:31;5.32;;;1.80;;
54171;SDS011;40076;52.354;4.970;2023-03-11T07:18:58;4.47;;;1.88;;
54171;SDS011;40076;52.354;4.970;2023-03-11T07:21:27;9.00;;;2.25;;
54171;SDS011;40076;52.354;4.970;2023-03-11T07:23:55;7.57;;;2.60;;
54171;SDS011;40076;52.354;4.970;2023-03-11T07:26:22;8.13;;;2.28;;
54171;SDS011;40076;52.354;4.970;2023-03-11T07:28:49;6.18;;;2.00;;
54171;SDS011;40076;52.354;4.970;2023-03-11T07:31:15;4.93;;;1.85;;
54171;SDS011;40076;52.354;4.970;2023-03-11T07:33:43;9.10;;;2.15;;
54171;SDS011;40076;52.354;4.970;2023-03-11T07:36:13;6.22;;;1.90;;
54171;SDS011;40076;52.354;4.970;2023-03-11T07:38:40;8.85;;;2.70;;
54171;SDS011;40076;52.354;4.970;2023-03-11T07:41:06;6.15;;;2.03;;
54171;SDS011;40076;52.354;4.970;2023-03-11T07:43:32;8.95;;;2.05;;
54171;SDS011;40076;52.354;4.970;2023-03-11T07:48:53;7.35;;;2.10;;
54171;SDS011;40076;52.354;4.970;2023-03-11T07:51:20;6.80;;;1.88;;
54171;SDS011;40076;52.354;4.970;2023-03-11T07:53:51;4.78;;;1.38;;
54171;SDS011;40076;52.354;4.970;2023-03-11T07:56:18;8.70;;;1.60;;
54171;SDS011;40076;52.354;4.970;2023-03-11T07:58:44;8.32;;;1.48;;
54171;SDS011;40076;52.354;4.970;2023-03-11T08:01:11;6.22;;;1.55;;
54171;SDS011;40076;52.354;4.970;2023-03-11T08:03:42;5.95;;;1.60;;
54171;SDS011;40076;52.354;4.970;2023-03-11T08:06:16;5.55;;;1.60;;
54171;SDS011;40076;52.354;4.970;2023-03-11T08:08:43;6.05;;;1.52;;
54171;SDS011;40076;52.354;4.970;2023-03-11T08:11:10;7.50;;;1.27;;
54171;SDS011;40076;52.354;4.970;2023-03-11T08:13:40;7.68;;;1.60;;
54171;SDS011;40076;52.354;4.970;2023-03-11T08:16:06;7.20;;;1.75;;
54171;SDS011;40076;52.354;4.970;2023-03-11T08:18:33;10.23;;;2.30;;
54171;SDS011;40076;52.354;4.970;2023-03-11T08:20:59;11.60;;;1.65;;
54171;SDS011;40076;52.354;4.970;2023-03-11T08:23:28;7.97;;;1.40;;
54171;SDS011;40076;52.354;4.970;2023-03-11T08:25:54;8.15;;;1.83;;
54171;SDS011;40076;52.354;4.970;2023-03-11T08:28:19;7.60;;;1.63;;
54171;SDS011;40076;52.354;4.970;2023-03-11T08:30:44;7.72;;;1.40;;
54171;SDS011;40076;52.354;4.970;2023-03-11T08:33:10;6.20;;;1.50;;
54171;SDS011;40076;52.354;4.970;2023-03-11T08:35:35;10.27;;;1.20;;
54171;SDS011;40076;52.354;4.970;2023-03-11T08:38:00;4.45;;;1.25;;
54171;SDS011;40076;52.354;4.970;2023-03-11T08:40:26;7.72;;;1.83;;
54171;SDS011;40076;52.354;4.970;2023-03-11T08:42:51;5.88;;;1.25;;
54171;SDS011;40076;52.354;4.970;2023-03-11T08:45:16;9.77;;;1.73;;
54171;SDS011;40076;52.354;4.970;2023-03-11T08:47:42;8.18;;;1.35;;
54171;SDS011;40076;52.354;4.970;2023-03-11T08:50:10;10.07;;;1.90;;
54171;SDS011;40076;52.354;4.970;2023-03-11T08:52:37;6.82;;;1.75;;
54171;SDS011;40076;52.354;4.970;2023-03-11T08:55:03;6.07;;;0.93;;
54171;SDS011;40076;52.354;4.970;2023-03-11T08:57:29;11.30;;;1.17;;
54171;SDS011;40076;52.354;4.970;2023-03-11T08:59:55;5.90;;;1.40;;
54171;SDS011;40076;52.354;4.970;2023-03-11T09:02:22;7.88;;;1.10;;
54171;SDS011;40076;52.354;4.970;2023-03-11T09:04:48;7.75;;;1.20;;
54171;SDS011;40076;52.354;4.970;2023-03-11T09:07:14;6.97;;;1.90;;
54171;SDS011;40076;52.354;4.970;2023-03-11T09:09:39;5.82;;;1.15;;
54171;SDS011;40076;52.354;4.970;2023-03-11T09:12:04;4.05;;;0.93;;
54171;SDS011;40076;52.354;4.970;2023-03-11T09:14:31;5.45;;;1.15;;
54171;SDS011;40076;52.354;4.970;2023-03-11T09:16:57;7.03;;;1.50;;
54171;SDS011;40076;52.354;4.970;2023-03-11T09:19:22;6.78;;;1.17;;
54171;SDS011;40076;52.354;4.970;2023-03-11T09:21:47;7.97;;;1.48;;
54171;SDS011;40076;52.354;4.970;2023-03-11T09:24:13;12.80;;;2.50;;
54171;SDS011;40076;52.354;4.970;2023-03-11T09:26:38;4.47;;;1.60;;
54171;SDS011;40076;52.354;4.970;2023-03-11T09:29:03;9.18;;;1.70;;
54171;SDS011;40076;52.354;4.970;2023-03-11T09:31:28;7.50;;;1.42;;
54171;SDS011;40076;52.354;4.970;2023-03-11T09:33:54;8.27;;;1.75;;
54171;SDS011;40076;52.354;4.970;2023-03-11T09:36:20;8.43;;;1.50;;
54171;SDS011;40076;52.354;4.970;2023-03-11T09:38:46;6.25;;;1.67;;
54171;SDS011;40076;52.354;4.970;2023-03-11T09:41:17;5.45;;;1.50;;
54171;SDS011;40076;52.354;4.970;2023-03-11T09:43:53;10.10;;;1.67;;
54171;SDS011;40076;52.354;4.970;2023-03-11T09:49:13;6.80;;;1.40;;
54171;SDS011;40076;52.354;4.970;2023-03-11T09:51:56;11.35;;;3.25;;
54171;SDS011;40076;52.354;4.970;2023-03-11T09:54:32;12.70;;;2.10;;
54171;SDS011;40076;52.354;4.970;2023-03-11T09:57:02;9.40;;;1.60;;
54171;SDS011;40076;52.354;4.970;2023-03-11T09:59:30;5.82;;;1.50;;
54171;SDS011;40076;52.354;4.970;2023-03-11T10:01:57;18.15;;;2.00;;
54171;SDS011;40076;52.354;4.970;2023-03-11T10:06:50;5.55;;;1.38;;
54171;SDS011;40076;52.354;4.970;2023-03-11T10:12:33;8.45;;;1.48;;
54171;SDS011;40076;52.354;4.970;2023-03-11T10:20:28;8.48;;;1.65;;
54171;SDS011;40076;52.354;4.970;2023-03-11T10:23:43;8.02;;;1.42;;
54171;SDS011;40076;52.354;4.970;2023-03-11T10:26:21;4.10;;;1.08;;
54171;SDS011;40076;52.354;4.970;2023-03-11T10:37:25;5.68;;;1.08;;
54171;SDS011;40076;52.354;4.970;2023-03-11T10:39:53;5.05;;;1.25;;
54171;SDS011;40076;52.354;4.970;2023-03-11T10:42:22;5.05;;;1.60;;
54171;SDS011;40076;52.354;4.970;2023-03-11T10:44:52;6.63;;;1.25;;
54171;SDS011;40076;52.354;4.970;2023-03-11T10:47:18;5.28;;;1.27;;
54171;SDS011;40076;52.354;4.970;2023-03-11T10:49:45;5.07;;;1.27;;
54171;SDS011;40076;52.354;4.970;2023-03-11T10:52:10;5.25;;;1.25;;
54171;SDS011;40076;52.354;4.970;2023-03-11T10:54:37;6.68;;;1.40;;
54171;SDS011;40076;52.354;4.970;2023-03-11T10:57:24;4.80;;;1.20;;
54171;SDS011;40076;52.354;4.970;2023-03-11T10:59:52;4.47;;;1.23;;
54171;SDS011;40076;52.354;4.970;2023-03-11T11:07:34;8.05;;;1.13;;
54171;SDS011;40076;52.354;4.970;2023-03-11T11:10:13;8.68;;;0.95;;
54171;SDS011;40076;52.354;4.970;2023-03-11T11:17:52;6.47;;;1.10;;
54171;SDS011;40076;52.354;4.970;2023-03-11T11:20:20;5.70;;;1.15;;
54171;SDS011;40076;52.354;4.970;2023-03-11T11:22:50;7.00;;;1.08;;
54171;SDS011;40076;52.354;4.970;2023-03-11T11:25:25;4.70;;;1.13;;
54171;SDS011;40076;52.354;4.970;2023-03-11T11:30:55;6.03;;;1.08;;
54171;SDS011;40076;52.354;4.970;2023-03-11T11:33:25;4.38;;;1.08;;
54171;SDS011;40076;52.354;4.970;2023-03-11T11:35:53;10.23;;;1.23;;
54171;SDS011;40076;52.354;4.970;2023-03-11T11:38:22;5.50;;;1.35;;
54171;SDS011;40076;52.354;4.970;2023-03-11T11:40:48;6.30;;;1.23;;
54171;SDS011;40076;52.354;4.970;2023-03-11T11:43:19;7.72;;;1.55;;
54171;SDS011;40076;52.354;4.970;2023-03-11T11:45:52;5.07;;;0.98;;
54171;SDS011;40076;52.354;4.970;2023-03-11T11:51:40;2.42;;;0.80;;
54171;SDS011;40076;52.354;4.970;2023-03-11T11:56:42;5.93;;;0.93;;
54171;SDS011;40076;52.354;4.970;2023-03-11T11:59:18;7.43;;;1.00;;
54171;SDS011;40076;52.354;4.970;2023-03-11T12:08:00;7.75;;;1.50;;
54171;SDS011;40076;52.354;4.970;2023-03-11T12:18:55;6.13;;;0.90;;
54171;SDS011;40076;52.354;4.970;2023-03-11T12:27:38;4.80;;;1.10;;
54171;SDS011;40076;52.354;4.970;2023-03-11T12:30:17;6.07;;;0.90;;
54171;SDS011;40076;52.354;4.970;2023-03-11T12:32:52;6.68;;;0.93;;
54171;SDS011;40076;52.354;4.970;2023-03-11T12:35:25;3.78;;;1.58;;
54171;SDS011;40076;52.354;4.970;2023-03-11T12:38:13;4.40;;;0.90;;
54171;SDS011;40076;52.354;4.970;2023-03-11T12:46:03;3.45;;;0.57;;
54171;SDS011;40076;52.354;4.970;2023-03-11T12:48:43;4.55;;;0.60;;
54171;SDS011;40076;52.354;4.970;2023-03-11T12:53:53;2.55;;;0.47;;
54171;SDS011;40076;52.354;4.970;2023-03-11T13:05:20;8.88;;;0.65;;
54171;SDS011;40076;52.354;4.970;2023-03-11T13:16:49;4.68;;;0.70;;
54171;SDS011;40076;52.354;4.970;2023-03-11T13:18:49;7.78;;;0.75;;
54171;SDS011;40076;52.354;4.970;2023-03-11T13:26:47;5.13;;;0.77;;
54171;SDS011;40076;52.354;4.970;2023-03-11T13:32:16;3.65;;;0.50;;
54171;SDS011;40076;52.354;4.970;2023-03-11T13:40:47;2.53;;;0.30;;
54171;SDS011;40076;52.354;4.970;2023-03-11T13:43:14;3.13;;;0.47;;
54171;SDS011;40076;52.354;4.970;2023-03-11T13:46:02;3.63;;;0.50;;
54171;SDS011;40076;52.354;4.970;2023-03-11T13:48:31;7.13;;;0.70;;
54171;SDS011;40076;52.354;4.970;2023-03-11T13:56:48;1.88;;;0.40;;
54171;SDS011;40076;52.354;4.970;2023-03-11T13:59:26;2.13;;;0.50;;
54171;SDS011;40076;52.354;4.970;2023-03-11T14:01:56;5.07;;;0.52;;
54171;SDS011;40076;52.354;4.970;2023-03-11T14:04:31;3.03;;;0.50;;
54171;SDS011;40076;52.354;4.970;2023-03-11T14:07:00;3.45;;;0.68;;
54171;SDS011;40076;52.354;4.970;2023-03-11T14:09:37;5.07;;;0.60;;
54171;SDS011;40076;52.354;4.970;2023-03-11T14:12:03;3.03;;;0.55;;
54171;SDS011;40076;52.354;4.970;2023-03-11T14:14:45;3.65;;;0.65;;
54171;SDS011;40076;52.354;4.970;2023-03-11T14:17:18;1.77;;;0.50;;
54171;SDS011;40076;52.354;4.970;2023-03-11T14:22:45;2.33;;;0.40;;
54171;SDS011;40076;52.354;4.970;2023-03-11T14:25:17;2.95;;;0.40;;
54171;SDS011;40076;52.354;4.970;2023-03-11T14:27:50;2.80;;;0.43;;
54171;SDS011;40076;52.354;4.970;2023-03-11T14:30:19;6.00;;;0.60;;
54171;SDS011;40076;52.354;4.970;2023-03-11T14:32:54;6.20;;;0.60;;
54171;SDS011;40076;52.354;4.970;2023-03-11T14:35:21;4.00;;;0.55;;
54171;SDS011;40076;52.354;4.970;2023-03-11T14:37:47;1.85;;;0.50;;
54171;SDS011;40076;52.354;4.970;2023-03-11T14:42:47;4.65;;;0.63;;
54171;SDS011;40076;52.354;4.970;2023-03-11T14:45:17;3.50;;;0.50;;
54171;SDS011;40076;52.354;4.970;2023-03-11T14:47:46;2.22;;;0.40;;
54171;SDS011;40076;52.354;4.970;2023-03-11T14:50:19;3.30;;;0.40;;
54171;SDS011;40076;52.354;4.970;2023-03-11T14:52:57;7.07;;;1.00;;
54171;SDS011;40076;52.354;4.970;2023-03-11T14:57:56;2.38;;;0.55;;
54171;SDS011;40076;52.354;4.970;2023-03-11T15:00:35;3.53;;;0.50;;
54171;SDS011;40076;52.354;4.970;2023-03-11T15:03:21;3.58;;;0.60;;
54171;SDS011;40076;52.354;4.970;2023-03-11T15:06:12;13.60;;;1.67;;
54171;SDS011;40076;52.354;4.970;2023-03-11T15:08:44;1.48;;;0.30;;
54171;SDS011;40076;52.354;4.970;2023-03-11T15:13:38;4.23;;;0.70;;
54171;SDS011;40076;52.354;4.970;2023-03-11T15:18:47;1.90;;;0.45;;
54171;SDS011;40076;52.354;4.970;2023-03-11T15:21:14;5.55;;;0.68;;
54171;SDS011;40076;52.354;4.970;2023-03-11T15:23:45;4.63;;;0.57;;
54171;SDS011;40076;52.354;4.970;2023-03-11T15:26:17;2.55;;;0.50;;
54171;SDS011;40076;52.354;4.970;2023-03-11T15:29:34;3.75;;;0.60;;
54171;SDS011;40076;52.354;4.970;2023-03-11T15:31:40;5.20;;;0.73;;
54171;SDS011;40076;52.354;4.970;2023-03-11T15:36:42;2.85;;;0.57;;
54171;SDS011;40076;52.354;4.970;2023-03-11T15:39:26;5.30;;;0.75;;
54171;SDS011;40076;52.354;4.970;2023-03-11T15:44:33;4.47;;;0.57;;
54171;SDS011;40076;52.354;4.970;2023-03-11T15:47:21;6.47;;;0.90;;
54171;SDS011;40076;52.354;4.970;2023-03-11T15:49:47;3.00;;;0.70;;
54171;SDS011;40076;52.354;4.970;2023-03-11T15:52:14;5.75;;;0.73;;
54171;SDS011;40076;52.354;4.970;2023-03-11T15:54:40;4.97;;;0.70;;
54171;SDS011;40076;52.354;4.970;2023-03-11T15:57:07;7.00;;;0.63;;
54171;SDS011;40076;52.354;4.970;2023-03-11T15:59:34;4.40;;;0.65;;
54171;SDS011;40076;52.354;4.970;2023-03-11T16:02:01;4.20;;;0.63;;
54171;SDS011;40076;52.354;4.970;2023-03-11T16:04:27;3.58;;;0.65;;
54171;SDS011;40076;52.354;4.970;2023-03-11T16:06:52;4.63;;;0.60;;
54171;SDS011;40076;52.354;4.970;2023-03-11T16:09:18;2.38;;;0.57;;
54171;SDS011;40076;52.354;4.970;2023-03-11T16:11:44;5.65;;;0.70;;
54171;SDS011;40076;52.354;4.970;2023-03-11T16:14:13;3.38;;;0.50;;
54171;SDS011;40076;52.354;4.970;2023-03-11T16:16:41;3.78;;;0.90;;
54171;SDS011;40076;52.354;4.970;2023-03-11T16:19:07;3.80;;;0.60;;
54171;SDS011;40076;52.354;4.970;2023-03-11T16:21:34;2.33;;;0.68;;
54171;SDS011;40076;52.354;4.970;2023-03-11T16:24:02;5.32;;;0.68;;
54171;SDS011;40076;52.354;4.970;2023-03-11T16:26:29;3.15;;;0.47;;
54171;SDS011;40076;52.354;4.970;2023-03-11T16:28:54;3.95;;;0.50;;
54171;SDS011;40076;52.354;4.970;2023-03-11T16:31:19;4.32;;;0.50;;
54171;SDS011;40076;52.354;4.970;2023-03-11T16:33:45;6.22;;;0.70;;
54171;SDS011;40076;52.354;4.970;2023-03-11T16:36:10;5.05;;;0.45;;
54171;SDS011;40076;52.354;4.970;2023-03-11T16:38:41;5.00;;;0.50;;
54171;SDS011;40076;52.354;4.970;2023-03-11T16:41:11;5.57;;;0.55;;
54171;SDS011;40076;52.354;4.970;2023-03-11T16:43:36;4.07;;;1.10;;
54171;SDS011;40076;52.354;4.970;2023-03-11T16:46:01;1.92;;;0.30;;
54171;SDS011;40076;52.354;4.970;2023-03-11T16:48:27;3.03;;;0.40;;
54171;SDS011;40076;52.354;4.970;2023-03-11T16:50:52;1.92;;;0.22;;
54171;SDS011;40076;52.354;4.970;2023-03-11T16:53:18;4.60;;;0.70;;
54171;SDS011;40076;52.354;4.970;2023-03-11T16:55:44;2.47;;;0.30;;
54171;SDS011;40076;52.354;4.970;2023-03-11T16:58:10;3.88;;;0.60;;
54171;SDS011;40076;52.354;4.970;2023-03-11T17:00:36;3.53;;;0.50;;
54171;SDS011;40076;52.354;4.970;2023-03-11T17:03:01;2.00;;;0.70;;
54171;SDS011;40076;52.354;4.970;2023-03-11T17:05:27;3.53;;;0.60;;
54171;SDS011;40076;52.354;4.970;2023-03-11T17:07:53;4.72;;;0.80;;
54171;SDS011;40076;52.354;4.970;2023-03-11T17:10:24;8.18;;;1.52;;
54171;SDS011;40076;52.354;4.970;2023-03-11T17:12:49;4.25;;;1.05;;
54171;SDS011;40076;52.354;4.970;2023-03-11T17:15:15;5.50;;;1.33;;